createdAt,value
2023-03-31T00:00:51.270Z,99.90
2023-03-31T00:03:22.186Z,99.90
2023-03-31T00:05:53.699Z,99.90
2023-03-31T00:08:21.417Z,99.90
2023-03-31T00:10:50.258Z,99.90
2023-03-31T00:13:17.637Z,99.90
2023-03-31T00:15:44.816Z,99.90
2023-03-31T00:18:12.182Z,99.90
2023-03-31T00:20:43.058Z,99.90
2023-03-31T00:23:11.306Z,99.90
2023-03-31T00:25:43.871Z,99.90
2023-03-31T00:28:11.155Z,99.90
2023-03-31T00:30:38.231Z,99.90
2023-03-31T00:33:05.368Z,99.90
2023-03-31T00:35:35.519Z,99.90
2023-03-31T00:38:02.589Z,99.90
2023-03-31T00:40:29.619Z,99.90
2023-03-31T00:42:56.667Z,99.90
2023-03-31T00:45:27.517Z,99.90
2023-03-31T00:48:03.755Z,99.90
2023-03-31T00:50:41.375Z,99.90
2023-03-31T00:53:13.187Z,99.90
2023-03-31T00:55:48.824Z,99.90
2023-03-31T00:58:20.345Z,99.90
2023-03-31T01:00:53.029Z,99.90
2023-03-31T01:03:22.730Z,99.90
2023-03-31T01:05:55.601Z,99.90
2023-03-31T01:08:24.586Z,99.90
2023-03-31T01:10:55.021Z,99.90
2023-03-31T01:13:23.949Z,99.90
2023-03-31T01:15:51.530Z,99.90
2023-03-31T01:18:22.011Z,99.90
2023-03-31T01:21:07.906Z,99.90
2023-03-31T01:24:06.195Z,99.90
2023-03-31T01:26:51.684Z,99.90
2023-03-31T01:29:48.208Z,99.90
2023-03-31T01:32:39.514Z,99.90
2023-03-31T01:35:31.215Z,99.90
2023-03-31T01:38:10.258Z,99.90
2023-03-31T01:40:55.837Z,99.90
2023-03-31T01:43:38.566Z,99.90
2023-03-31T01:46:29.174Z,99.90
2023-03-31T01:49:15.445Z,99.90
2023-03-31T01:51:57.293Z,99.90
2023-03-31T01:54:52.225Z,99.90
2023-03-31T01:57:23.128Z,99.90
2023-03-31T02:00:03.267Z,99.90
2023-03-31T02:02:44.668Z,99.90
2023-03-31T02:05:17.052Z,99.90
2023-03-31T02:08:14.168Z,99.90
2023-03-31T02:10:44.946Z,99.90
2023-03-31T02:13:15.231Z,99.90
2023-03-31T02:15:47.504Z,99.90
2023-03-31T02:18:20.467Z,99.90
2023-03-31T02:20:50.042Z,99.90
2023-03-31T02:23:22.525Z,99.90
2023-03-31T02:25:53.243Z,99.90
2023-03-31T02:28:28.351Z,99.90
2023-03-31T02:31:24.712Z,99.90
2023-03-31T02:33:51.958Z,99.90
2023-03-31T02:36:19.838Z,99.90
2023-03-31T02:38:52.388Z,99.90
2023-03-31T02:41:19.488Z,99.90
2023-03-31T02:43:46.631Z,99.90
2023-03-31T02:46:13.750Z,99.90
2023-03-31T02:48:45.997Z,99.90
2023-03-31T02:51:28.511Z,99.90
2023-03-31T02:54:14.307Z,99.90
2023-03-31T02:57:13.171Z,99.90
2023-03-31T03:00:09.892Z,99.90
2023-03-31T03:03:01.732Z,99.90
2023-03-31T03:05:54.910Z,99.90
2023-03-31T03:08:55.961Z,99.90
2023-03-31T03:11:59.676Z,99.90
2023-03-31T03:14:44.115Z,99.90
2023-03-31T03:17:29.067Z,99.90
2023-03-31T03:20:00.796Z,99.90
2023-03-31T03:22:28.125Z,99.90
2023-03-31T03:24:55.528Z,99.90
2023-03-31T03:27:22.970Z,99.90
2023-03-31T03:29:50.609Z,99.90
2023-03-31T03:32:17.722Z,99.90
2023-03-31T03:34:45.060Z,99.90
2023-03-31T03:37:12.276Z,99.90
2023-03-31T03:39:41.312Z,99.90
2023-03-31T03:42:08.338Z,99.90
2023-03-31T03:44:35.558Z,99.90
2023-03-31T03:47:02.743Z,99.90
2023-03-31T03:49:29.927Z,99.90
2023-03-31T03:51:57.060Z,99.90
2023-03-31T03:54:24.212Z,99.90
2023-03-31T03:56:51.313Z,99.90
2023-03-31T03:59:18.563Z,99.90
2023-03-31T04:01:45.778Z,99.90
2023-03-31T04:04:12.985Z,99.90
2023-03-31T04:06:40.144Z,99.90
2023-03-31T04:09:07.341Z,99.90
2023-03-31T04:11:34.486Z,99.90
2023-03-31T04:14:01.725Z,99.90
2023-03-31T04:16:29.191Z,99.90
2023-03-31T04:18:59.178Z,99.90
2023-03-31T04:21:26.359Z,99.90
2023-03-31T04:24:07.381Z,99.90
2023-03-31T04:26:44.504Z,99.90
2023-03-31T04:29:13.190Z,99.90
2023-03-31T04:31:44.157Z,99.90
2023-03-31T04:34:15.835Z,99.90
2023-03-31T04:36:49.734Z,99.90
2023-03-31T04:39:18.609Z,99.90
2023-03-31T04:41:46.101Z,99.90
2023-03-31T04:44:13.311Z,99.90
2023-03-31T04:46:40.444Z,99.90
2023-03-31T04:49:07.521Z,99.90
2023-03-31T04:51:34.564Z,99.90
2023-03-31T04:54:01.612Z,99.90
2023-03-31T04:56:28.711Z,99.90
2023-03-31T04:58:55.754Z,99.90
2023-03-31T05:01:22.949Z,99.90
2023-03-31T05:03:50.049Z,99.90
2023-03-31T05:06:17.805Z,99.90
2023-03-31T05:08:45.425Z,99.90
2023-03-31T05:11:12.511Z,99.90
2023-03-31T05:13:39.611Z,99.90
2023-03-31T05:16:09.090Z,99.90
2023-03-31T05:18:36.399Z,99.90
2023-03-31T05:21:13.801Z,99.90
2023-03-31T05:23:41.196Z,99.90
2023-03-31T05:26:08.938Z,99.90
2023-03-31T05:28:36.931Z,99.90
2023-03-31T05:31:05.591Z,99.90
2023-03-31T05:33:33.240Z,99.90
2023-03-31T05:36:00.906Z,99.90
2023-03-31T05:38:31.812Z,99.90
2023-03-31T05:40:58.986Z,99.90
2023-03-31T05:43:26.081Z,99.90
2023-03-31T05:45:53.280Z,99.90
2023-03-31T05:48:21.527Z,99.90
2023-03-31T05:50:48.624Z,99.90
2023-03-31T05:53:15.754Z,99.90
2023-03-31T05:55:42.764Z,99.90
2023-03-31T05:58:09.951Z,99.90
2023-03-31T06:00:38.129Z,99.90
2023-03-31T06:03:08.059Z,99.90
2023-03-31T06:05:35.869Z,99.90
2023-03-31T06:08:03.781Z,99.90
2023-03-31T06:10:30.961Z,99.90
2023-03-31T06:12:58.147Z,99.90
2023-03-31T06:15:25.205Z,99.90
2023-03-31T06:17:52.469Z,99.90
2023-03-31T06:20:27.912Z,99.90
2023-03-31T06:22:56.056Z,99.90
2023-03-31T06:25:23.146Z,99.90
2023-03-31T06:27:50.517Z,99.90
2023-03-31T06:30:17.737Z,99.90
2023-03-31T06:32:44.822Z,99.90
2023-03-31T06:35:11.978Z,99.90
2023-03-31T06:37:39.039Z,99.90
2023-03-31T06:40:06.743Z,99.90
2023-03-31T06:42:35.119Z,99.90
2023-03-31T06:45:02.200Z,99.90
2023-03-31T06:47:29.297Z,99.90
2023-03-31T06:49:56.397Z,99.90
2023-03-31T06:52:23.478Z,99.90
2023-03-31T06:54:50.548Z,99.90
2023-03-31T06:57:17.624Z,99.90
2023-03-31T06:59:44.748Z,99.90
2023-03-31T07:02:11.811Z,99.90
2023-03-31T07:04:38.941Z,99.90
2023-03-31T07:07:06.021Z,99.90
2023-03-31T07:09:33.356Z,99.90
2023-03-31T07:12:00.420Z,99.90
2023-03-31T07:14:27.570Z,99.90
2023-03-31T07:16:54.837Z,99.90
2023-03-31T07:19:21.959Z,99.90
2023-03-31T07:21:49.640Z,99.90
2023-03-31T07:24:17.458Z,99.90
2023-03-31T07:26:44.580Z,99.90
2023-03-31T07:29:11.709Z,99.90
2023-03-31T07:31:38.790Z,99.90
2023-03-31T07:34:06.311Z,99.90
2023-03-31T07:36:33.406Z,99.90
2023-03-31T07:39:00.706Z,99.90
2023-03-31T07:41:27.745Z,99.90
2023-03-31T07:43:54.821Z,99.90
2023-03-31T07:46:25.034Z,99.90
2023-03-31T07:48:53.483Z,99.90
2023-03-31T07:51:23.493Z,99.90
2023-03-31T07:53:52.538Z,99.90
2023-03-31T07:56:22.908Z,99.90
2023-03-31T07:58:52.403Z,99.90
2023-03-31T08:01:21.888Z,99.90
2023-03-31T08:03:49.305Z,99.90
2023-03-31T08:06:22.014Z,99.90
2023-03-31T08:08:50.381Z,99.90
2023-03-31T08:11:18.503Z,99.90
2023-03-31T08:13:45.663Z,99.90
2023-03-31T08:16:12.856Z,99.90
2023-03-31T08:18:40.026Z,99.90
2023-03-31T08:21:07.921Z,99.90
2023-03-31T08:23:35.820Z,99.90
2023-03-31T08:26:19.235Z,99.90
2023-03-31T08:28:49.671Z,99.90
2023-03-31T08:31:19.223Z,99.90
2023-03-31T08:33:47.901Z,99.90
2023-03-31T08:36:15.816Z,99.90
2023-03-31T08:38:48.365Z,99.90
2023-03-31T08:41:34.501Z,99.90
2023-03-31T08:44:09.247Z,99.90
2023-03-31T08:46:37.223Z,99.90
2023-03-31T08:49:06.521Z,99.90
2023-03-31T08:51:41.678Z,99.90
2023-03-31T08:54:44.730Z,99.90
2023-03-31T08:57:26.478Z,99.90
2023-03-31T08:59:58.568Z,99.90
2023-03-31T09:02:32.118Z,99.90
2023-03-31T09:05:27.604Z,99.90
2023-03-31T09:08:02.986Z,99.90
2023-03-31T09:10:42.396Z,99.90
2023-03-31T09:13:25.693Z,99.90
2023-03-31T09:16:05.769Z,99.90
2023-03-31T09:18:37.031Z,99.70
2023-03-31T09:21:28.178Z,99.10
2023-03-31T09:24:03.547Z,96.80
2023-03-31T09:26:53.632Z,97.30
2023-03-31T09:29:49.418Z,99.90
2023-03-31T09:32:23.870Z,99.80
2023-03-31T09:34:54.189Z,99.90
2023-03-31T09:37:22.043Z,97.80
2023-03-31T09:39:50.269Z,99.00
2023-03-31T09:42:19.626Z,98.60
2023-03-31T09:44:50.384Z,98.40
2023-03-31T09:47:27.862Z,99.10
2023-03-31T09:49:56.830Z,97.30
2023-03-31T09:52:32.407Z,96.00
2023-03-31T09:55:07.474Z,94.80
2023-03-31T09:57:39.793Z,95.30
2023-03-31T10:00:17.284Z,93.70
2023-03-31T10:02:53.786Z,94.90
2023-03-31T10:05:29.979Z,95.10
2023-03-31T10:08:50.128Z,94.90
2023-03-31T10:11:17.661Z,94.60
2023-03-31T10:13:59.670Z,94.10
2023-03-31T10:16:29.993Z,92.90
2023-03-31T10:19:17.910Z,93.50
2023-03-31T10:21:48.321Z,93.80
2023-03-31T10:24:19.594Z,92.70
2023-03-31T10:26:53.242Z,93.40
2023-03-31T10:29:32.726Z,92.10
2023-03-31T10:32:23.357Z,91.10
2023-03-31T10:34:51.091Z,91.50
2023-03-31T10:37:22.617Z,92.50
2023-03-31T10:40:01.888Z,93.30
2023-03-31T10:42:29.143Z,93.20
2023-03-31T10:45:35.577Z,92.90
2023-03-31T10:48:04.477Z,93.50
2023-03-31T10:50:35.540Z,93.30
2023-03-31T10:53:13.209Z,94.50
2023-03-31T10:55:59.084Z,94.30
2023-03-31T10:59:04.238Z,93.80
2023-03-31T11:02:09.677Z,94.40
2023-03-31T11:04:49.097Z,93.60
2023-03-31T11:07:43.490Z,92.70
2023-03-31T11:10:33.292Z,91.20
2023-03-31T11:13:06.579Z,92.90
2023-03-31T11:15:44.959Z,93.10
2023-03-31T11:18:30.123Z,92.60
2023-03-31T11:21:09.584Z,91.30
2023-03-31T11:23:46.924Z,91.30
2023-03-31T11:26:17.990Z,89.50
2023-03-31T11:29:09.126Z,90.40
2023-03-31T11:32:09.581Z,88.80
2023-03-31T11:34:50.803Z,89.30
2023-03-31T11:37:36.929Z,90.60
2023-03-31T11:40:23.166Z,91.30
2023-03-31T11:42:57.705Z,91.90
2023-03-31T11:46:06.178Z,91.60
2023-03-31T11:48:46.699Z,90.50
2023-03-31T11:51:42.553Z,91.00
2023-03-31T11:54:31.707Z,90.30
2023-03-31T11:57:07.823Z,90.60
2023-03-31T11:59:36.170Z,85.70
2023-03-31T12:02:44.240Z,87.00
2023-03-31T12:05:13.724Z,88.10
2023-03-31T12:08:15.788Z,87.70
2023-03-31T12:10:54.311Z,86.20
2023-03-31T12:13:45.079Z,88.60
2023-03-31T12:16:15.471Z,86.70
2023-03-31T12:19:07.559Z,86.70
2023-03-31T12:21:37.998Z,88.90
2023-03-31T12:24:06.500Z,87.30
2023-03-31T12:26:49.481Z,86.90
2023-03-31T12:29:32.681Z,85.80
2023-03-31T12:32:05.135Z,86.30
2023-03-31T12:34:33.098Z,86.60
2023-03-31T12:37:44.213Z,87.00
2023-03-31T12:40:45.435Z,85.60
2023-03-31T12:43:31.707Z,85.70
2023-03-31T12:46:08.162Z,86.00
2023-03-31T12:48:54.900Z,86.10
2023-03-31T12:51:34.423Z,87.10
2023-03-31T12:54:33.583Z,85.80
2023-03-31T12:57:03.598Z,85.00
2023-03-31T12:59:36.867Z,84.50
2023-03-31T13:02:10.145Z,82.60
2023-03-31T13:04:38.412Z,82.30
2023-03-31T13:07:27.190Z,84.90
2023-03-31T13:10:21.849Z,84.20
2023-03-31T13:13:15.411Z,82.20
2023-03-31T13:15:57.864Z,82.30
2023-03-31T13:18:25.484Z,85.40
2023-03-31T13:23:37.435Z,83.40
2023-03-31T13:26:04.871Z,84.50
2023-03-31T13:29:10.347Z,84.30
2023-03-31T13:32:02.776Z,84.50
2023-03-31T13:34:36.254Z,85.90
2023-03-31T13:37:28.368Z,86.50
2023-03-31T13:40:27.843Z,84.90
2023-03-31T13:43:26.564Z,84.00
2023-03-31T13:45:59.863Z,82.20
2023-03-31T13:48:26.898Z,83.30
2023-03-31T13:51:01.971Z,81.60
2023-03-31T13:53:57.789Z,81.30
2023-03-31T13:56:33.672Z,83.80
2023-03-31T13:59:38.708Z,84.30
2023-03-31T14:02:37.448Z,83.90
2023-03-31T14:05:23.126Z,83.60
2023-03-31T14:07:58.552Z,83.60
2023-03-31T14:10:37.524Z,84.20
2023-03-31T14:13:18.276Z,84.70
2023-03-31T14:15:50.958Z,84.60
2023-03-31T14:18:28.195Z,84.70
2023-03-31T14:21:28.101Z,84.40
2023-03-31T14:24:13.895Z,85.50
2023-03-31T14:26:46.769Z,85.10
2023-03-31T14:29:24.183Z,84.50
2023-03-31T14:31:51.625Z,82.90
2023-03-31T14:34:40.060Z,83.10
2023-03-31T14:37:12.408Z,81.90
2023-03-31T14:39:53.085Z,82.50
2023-03-31T14:42:25.417Z,82.30
2023-03-31T14:44:56.152Z,81.90
2023-03-31T14:47:26.392Z,81.90
2023-03-31T14:50:15.857Z,82.20
2023-03-31T14:52:52.332Z,83.50
2023-03-31T14:55:26.487Z,82.50
2023-03-31T14:57:57.528Z,81.30
2023-03-31T15:00:31.811Z,82.20
2023-03-31T15:03:01.611Z,82.90
2023-03-31T15:05:30.020Z,82.90
2023-03-31T15:08:03.736Z,82.70
2023-03-31T15:10:39.374Z,81.50
2023-03-31T15:13:46.924Z,81.60
2023-03-31T15:16:35.803Z,82.50
2023-03-31T15:19:11.617Z,82.90
2023-03-31T15:21:39.233Z,83.90
2023-03-31T15:24:06.627Z,83.20
2023-03-31T15:27:02.896Z,83.90
2023-03-31T15:29:43.121Z,83.10
2023-03-31T15:32:17.455Z,83.00
2023-03-31T15:34:46.564Z,83.80
2023-03-31T15:37:14.110Z,83.40
2023-03-31T15:39:47.172Z,82.60
2023-03-31T15:42:14.559Z,82.40
2023-03-31T15:44:54.714Z,82.60
2023-03-31T15:47:27.623Z,82.50
2023-03-31T15:50:24.064Z,81.10
2023-03-31T15:52:53.839Z,80.40
2023-03-31T15:55:26.325Z,82.20
2023-03-31T15:57:54.206Z,83.10
2023-03-31T16:00:48.266Z,83.50
2023-03-31T16:03:23.525Z,83.20
2023-03-31T16:05:57.416Z,84.20
2023-03-31T16:08:49.526Z,84.20
2023-03-31T16:11:39.587Z,84.50
2023-03-31T16:14:33.465Z,85.20
2023-03-31T16:17:13.617Z,84.10
2023-03-31T16:19:48.729Z,83.80
2023-03-31T16:22:23.642Z,83.70
2023-03-31T16:24:51.350Z,83.50
2023-03-31T16:27:18.778Z,84.30
2023-03-31T16:29:45.938Z,84.30
2023-03-31T16:32:16.125Z,85.20
2023-03-31T16:35:01.781Z,85.40
2023-03-31T16:37:32.500Z,85.70
2023-03-31T16:39:59.678Z,86.40
2023-03-31T16:42:27.290Z,87.10
2023-03-31T16:47:35.263Z,87.90
2023-03-31T16:50:07.500Z,88.40
2023-03-31T16:52:36.212Z,88.70
2023-03-31T16:55:03.560Z,88.70
2023-03-31T16:57:30.834Z,88.90
2023-03-31T16:59:59.071Z,89.40
2023-03-31T17:02:26.814Z,90.00
2023-03-31T17:04:56.649Z,90.20
2023-03-31T17:07:27.147Z,90.10
2023-03-31T17:09:54.388Z,90.50
2023-03-31T17:12:21.657Z,90.60
2023-03-31T17:14:49.282Z,91.00
2023-03-31T17:17:18.026Z,91.10
2023-03-31T17:19:45.831Z,91.10
2023-03-31T17:22:13.271Z,91.30
2023-03-31T17:24:40.902Z,91.60
2023-03-31T17:27:08.330Z,91.10
2023-03-31T17:29:35.521Z,91.10
2023-03-31T17:32:04.305Z,91.40
2023-03-31T17:34:31.779Z,90.90
2023-03-31T17:36:59.311Z,91.00
2023-03-31T17:39:29.925Z,91.00
2023-03-31T17:42:01.389Z,91.20
2023-03-31T17:44:29.915Z,90.80
2023-03-31T17:46:58.024Z,91.10
2023-03-31T17:49:26.622Z,91.00
2023-03-31T17:51:54.407Z,91.30
2023-03-31T17:54:22.189Z,91.20
2023-03-31T17:56:50.706Z,91.00
2023-03-31T17:59:19.021Z,91.00
2023-03-31T18:01:47.995Z,91.10
2023-03-31T18:04:17.191Z,91.30
2023-03-31T18:06:45.296Z,91.30
2023-03-31T18:09:12.680Z,91.40
2023-03-31T18:11:40.726Z,91.90
2023-03-31T18:14:09.888Z,91.70
2023-03-31T18:16:37.957Z,91.80
2023-03-31T18:19:06.211Z,91.60
2023-03-31T18:21:35.283Z,91.60
2023-03-31T18:24:02.797Z,91.70
2023-03-31T18:26:30.805Z,92.20
2023-03-31T18:28:59.224Z,91.90
2023-03-31T18:31:30.048Z,92.10
2023-03-31T18:33:58.413Z,92.30
2023-03-31T18:36:28.610Z,92.40
2023-03-31T18:38:57.183Z,92.60
2023-03-31T18:41:25.901Z,92.70
2023-03-31T18:43:55.106Z,93.00
2023-03-31T18:46:24.883Z,93.30
2023-03-31T18:48:52.953Z,93.30
2023-03-31T18:51:23.600Z,93.50
2023-03-31T18:53:51.636Z,93.60
2023-03-31T18:56:20.025Z,93.50
2023-03-31T18:58:48.317Z,93.90
2023-03-31T19:01:18.904Z,93.70
2023-03-31T19:03:48.904Z,93.80
2023-03-31T19:06:18.107Z,93.90
2023-03-31T19:08:52.658Z,94.10
2023-03-31T19:11:20.706Z,94.30
2023-03-31T19:13:49.014Z,94.50
2023-03-31T19:16:18.168Z,94.70
2023-03-31T19:18:49.933Z,95.00
2023-03-31T19:21:18.940Z,95.30
2023-03-31T19:23:47.035Z,95.70
2023-03-31T19:26:22.034Z,95.90
2023-03-31T19:28:50.122Z,96.30
2023-03-31T19:31:18.372Z,96.80
2023-03-31T19:33:47.201Z,97.70
2023-03-31T19:36:17.726Z,98.30
2023-03-31T19:38:48.894Z,99.00
2023-03-31T19:41:18.862Z,99.50
2023-03-31T19:43:48.430Z,99.90
2023-03-31T19:46:17.021Z,99.90
2023-03-31T19:48:45.474Z,99.90
2023-03-31T19:51:13.629Z,99.90
2023-03-31T19:53:42.161Z,99.90
2023-03-31T19:56:13.861Z,99.90
2023-03-31T19:58:44.822Z,99.90
2023-03-31T20:01:19.202Z,99.90
2023-03-31T20:03:56.048Z,99.90
2023-03-31T20:06:29.137Z,99.90
2023-03-31T20:09:00.821Z,99.90
2023-03-31T20:11:31.616Z,99.90
2023-03-31T20:14:02.092Z,99.90
2023-03-31T20:16:31.236Z,99.90
2023-03-31T20:19:02.324Z,99.90
2023-03-31T20:21:32.004Z,99.90
2023-03-31T20:24:00.325Z,99.40
2023-03-31T20:26:33.193Z,99.90
2023-03-31T20:29:04.508Z,99.90
2023-03-31T20:31:52.527Z,99.90
2023-03-31T20:34:25.228Z,99.90
2023-03-31T20:36:53.635Z,99.90
2023-03-31T20:39:49.606Z,99.90
2023-03-31T20:42:17.310Z,99.90
2023-03-31T20:44:46.118Z,99.90
2023-03-31T20:47:14.923Z,99.90
2023-03-31T20:49:42.852Z,99.90
2023-03-31T20:52:12.368Z,99.90
2023-03-31T20:54:40.515Z,99.90
2023-03-31T20:57:08.032Z,99.90
2023-03-31T20:59:35.697Z,99.90
2023-03-31T21:02:03.621Z,99.90
2023-03-31T21:04:37.313Z,99.90
2023-03-31T21:07:04.852Z,99.90
2023-03-31T21:09:35.601Z,99.90
2023-03-31T21:12:06.469Z,99.90
2023-03-31T21:14:36.814Z,99.90
2023-03-31T21:17:07.185Z,99.90
2023-03-31T21:19:34.684Z,99.90
2023-03-31T21:22:02.051Z,99.90
2023-03-31T21:24:32.249Z,99.90
2023-03-31T21:27:02.044Z,99.90
2023-03-31T21:29:29.651Z,99.90
2023-03-31T21:31:59.866Z,99.90
2023-03-31T21:34:30.391Z,99.90
2023-03-31T21:36:57.726Z,99.90
2023-03-31T21:39:28.377Z,99.90
2023-03-31T21:41:55.768Z,99.90
2023-03-31T21:44:23.235Z,99.90
2023-03-31T21:46:50.637Z,99.90
2023-03-31T21:49:18.647Z,99.90
2023-03-31T21:51:46.656Z,99.90
2023-03-31T21:54:14.098Z,99.90
2023-03-31T21:56:41.472Z,99.90
2023-03-31T21:59:08.931Z,99.90
2023-03-31T22:01:36.456Z,99.90
2023-03-31T22:04:04.379Z,99.90
2023-03-31T22:06:31.856Z,99.90
2023-03-31T22:08:59.327Z,99.90
2023-03-31T22:11:28.468Z,99.90
2023-03-31T22:13:56.747Z,99.90
2023-03-31T22:16:24.401Z,99.90
2023-03-31T22:18:53.032Z,99.90
2023-03-31T22:21:26.172Z,99.90
2023-03-31T22:23:56.060Z,99.90
2023-03-31T22:26:23.833Z,99.90
2023-03-31T22:28:51.291Z,99.90
2023-03-31T22:31:18.808Z,99.90
2023-03-31T22:33:46.955Z,99.90
2023-03-31T22:36:14.695Z,99.90
2023-03-31T22:38:42.125Z,99.90
2023-03-31T22:41:09.479Z,99.90
2023-03-31T22:43:36.762Z,99.90
2023-03-31T22:46:09.129Z,99.90
2023-03-31T22:48:36.754Z,99.90
2023-03-31T22:51:06.134Z,99.90
2023-03-31T22:53:33.929Z,99.90
2023-03-31T22:56:06.847Z,99.90
2023-03-31T22:58:34.356Z,99.90
2023-03-31T23:01:02.245Z,99.90
2023-03-31T23:03:29.597Z,99.90
2023-03-31T23:05:57.087Z,99.90
2023-03-31T23:08:27.299Z,99.90
2023-03-31T23:10:59.821Z,99.90
2023-03-31T23:13:27.880Z,99.90
2023-03-31T23:15:55.383Z,99.90
2023-03-31T23:18:23.624Z,99.90
2023-03-31T23:20:51.141Z,99.90
2023-03-31T23:23:18.858Z,99.90
2023-03-31T23:25:46.481Z,99.90
2023-03-31T23:28:13.867Z,99.90
2023-03-31T23:30:41.449Z,99.90
2023-03-31T23:33:08.961Z,99.90
2023-03-31T23:35:36.856Z,99.90
2023-03-31T23:38:04.516Z,99.90
2023-03-31T23:40:31.914Z,99.90
2023-03-31T23:42:59.407Z,99.90
2023-03-31T23:45:27.379Z,99.90
2023-03-31T23:47:54.715Z,99.90
2023-03-31T23:50:22.045Z,99.90
2023-03-31T23:52:49.545Z,99.90
2023-03-31T23:55:17.020Z,99.90
2023-03-31T23:57:44.451Z,99.90
